createdAt,value
2018-04-13T00:00:06.469Z,39.10
2018-04-13T00:01:06.455Z,40.10
2018-04-13T00:02:06.442Z,40.20
2018-04-13T00:03:06.430Z,40.40
2018-04-13T00:04:06.418Z,39.00
2018-04-13T00:05:06.406Z,38.60
2018-04-13T00:06:06.395Z,38.80
2018-04-13T00:07:06.381Z,39.60
2018-04-13T00:08:06.369Z,40.40
2018-04-13T00:09:06.356Z,38.90
2018-04-13T00:10:06.344Z,39.80
2018-04-13T00:11:06.332Z,39.00
2018-04-13T00:12:06.320Z,39.90
2018-04-13T00:13:06.308Z,40.50
2018-04-13T00:14:06.296Z,38.30
2018-04-13T00:15:06.286Z,39.90
2018-04-13T00:16:06.272Z,40.90
2018-04-13T00:17:06.261Z,39.20
2018-04-13T00:18:06.246Z,38.60
2018-04-13T00:19:06.234Z,39.50
2018-04-13T00:20:06.220Z,39.00
2018-04-13T00:21:06.209Z,38.20
2018-04-13T00:22:06.197Z,38.40
2018-04-13T00:23:06.185Z,40.20
2018-04-13T00:24:06.174Z,39.20
2018-04-13T00:25:06.159Z,39.40
2018-04-13T00:26:06.157Z,39.20
2018-04-13T00:27:06.135Z,39.90
2018-04-13T00:28:06.124Z,40.40
2018-04-13T00:29:06.109Z,39.70
2018-04-13T00:30:06.096Z,39.40
2018-04-13T00:31:06.086Z,39.50
2018-04-13T00:32:06.078Z,38.00
2018-04-13T00:33:06.061Z,40.00
2018-04-13T00:34:06.054Z,38.60
2018-04-13T00:35:06.039Z,40.20
2018-04-13T00:36:06.029Z,39.70
2018-04-13T00:37:06.022Z,39.70
2018-04-13T00:38:06.000Z,39.80
2018-04-13T00:39:05.988Z,38.40
2018-04-13T00:40:05.977Z,39.50
2018-04-13T00:41:05.964Z,38.80
2018-04-13T00:42:05.950Z,38.70
2018-04-13T00:43:05.937Z,39.40
2018-04-13T00:44:05.926Z,39.10
2018-04-13T00:45:05.911Z,39.50
2018-04-13T00:46:05.900Z,38.60
2018-04-13T00:47:05.889Z,39.70
2018-04-13T00:48:05.875Z,40.00
2018-04-13T00:49:05.863Z,39.40
2018-04-13T00:50:05.849Z,38.50
2018-04-13T00:51:05.837Z,39.10
2018-04-13T00:52:05.828Z,40.20
2018-04-13T00:53:05.810Z,41.00
2018-04-13T00:54:05.798Z,39.20
2018-04-13T00:55:05.789Z,38.70
2018-04-13T00:56:05.776Z,38.10
2018-04-13T00:57:05.763Z,38.30
2018-04-13T00:58:05.748Z,38.60
2018-04-13T00:59:05.739Z,37.70
2018-04-13T01:00:05.728Z,39.10
2018-04-13T01:01:05.725Z,40.00
2018-04-13T01:02:05.705Z,40.60
2018-04-13T01:03:05.687Z,38.60
2018-04-13T01:04:05.674Z,39.60
2018-04-13T01:05:05.663Z,39.70
2018-04-13T01:06:05.648Z,38.70
2018-04-13T01:07:05.637Z,37.50
2018-04-13T01:08:05.624Z,38.60
2018-04-13T01:09:05.617Z,38.10
2018-04-13T01:10:05.599Z,38.50
2018-04-13T01:11:05.587Z,39.50
2018-04-13T01:12:05.580Z,39.00
2018-04-13T01:13:05.564Z,39.30
2018-04-13T01:14:05.548Z,39.00
2018-04-13T01:15:05.535Z,38.90
2018-04-13T01:16:05.525Z,38.70
2018-04-13T01:17:05.512Z,39.60
2018-04-13T01:18:05.497Z,39.10
2018-04-13T01:19:05.486Z,38.20
2018-04-13T01:20:05.477Z,37.60
2018-04-13T01:21:05.460Z,37.50
2018-04-13T01:22:05.448Z,38.10
2018-04-13T01:23:05.437Z,37.90
2018-04-13T01:24:05.422Z,37.60
2018-04-13T01:25:05.409Z,39.00
2018-04-13T01:26:05.399Z,37.10
2018-04-13T01:27:05.385Z,37.60
2018-04-13T01:28:05.378Z,38.10
2018-04-13T01:29:05.360Z,37.80
2018-04-13T01:30:05.349Z,37.00
2018-04-13T01:31:05.337Z,36.70
2018-04-13T01:32:05.322Z,38.00
2018-04-13T01:33:05.310Z,37.60
2018-04-13T01:34:05.297Z,37.90
2018-04-13T01:35:05.286Z,35.70
2018-04-13T01:36:05.271Z,36.80
2018-04-13T01:37:05.258Z,37.70
2018-04-13T01:38:05.247Z,36.50
2018-04-13T01:39:05.234Z,37.00
2018-04-13T01:40:05.223Z,37.70
2018-04-13T01:41:05.209Z,36.90
2018-04-13T01:42:05.197Z,36.90
2018-04-13T01:43:05.183Z,37.10
2018-04-13T01:44:05.173Z,37.00
2018-04-13T01:45:05.159Z,37.80
2018-04-13T01:46:05.147Z,36.00
2018-04-13T01:47:05.134Z,36.30
2018-04-13T01:48:05.122Z,37.90
2018-04-13T01:49:05.109Z,37.50
2018-04-13T01:50:05.096Z,37.10
2018-04-13T01:51:05.083Z,37.40
2018-04-13T01:52:05.072Z,38.00
2018-04-13T01:53:05.056Z,38.30
2018-04-13T01:54:05.045Z,36.40
2018-04-13T01:55:05.034Z,37.60
2018-04-13T01:56:05.028Z,38.60
2018-04-13T01:57:05.011Z,37.80
2018-04-13T01:58:04.995Z,37.80
2018-04-13T01:59:04.983Z,36.70
2018-04-13T02:00:04.973Z,38.20
2018-04-13T02:01:04.955Z,38.50
2018-04-13T02:02:04.947Z,37.20
2018-04-13T02:03:04.931Z,36.90
2018-04-13T02:04:04.920Z,36.90
2018-04-13T02:05:04.911Z,37.50
2018-04-13T02:06:04.893Z,38.30
2018-04-13T02:07:04.882Z,37.30
2018-04-13T02:08:04.869Z,37.00
2018-04-13T02:09:04.860Z,37.20
2018-04-13T02:10:04.852Z,36.90
2018-04-13T02:11:04.832Z,37.20
2018-04-13T02:12:04.820Z,37.00
2018-04-13T02:13:04.808Z,36.70
2018-04-13T02:14:04.794Z,38.00
2018-04-13T02:15:04.782Z,37.90
2018-04-13T02:16:04.773Z,37.90
2018-04-13T02:17:04.756Z,37.50
2018-04-13T02:18:04.742Z,39.00
2018-04-13T02:19:04.737Z,37.30
2018-04-13T02:20:04.718Z,38.40
2018-04-13T02:21:04.704Z,37.20
2018-04-13T02:22:04.691Z,37.40
2018-04-13T02:23:04.678Z,36.70
2018-04-13T02:24:04.674Z,38.20
2018-04-13T02:25:04.652Z,37.90
2018-04-13T02:26:04.641Z,37.40
2018-04-13T02:27:04.627Z,37.80
2018-04-13T02:28:04.618Z,37.80
2018-04-13T02:29:04.602Z,37.50
2018-04-13T02:30:04.592Z,38.70
2018-04-13T02:31:04.576Z,38.10
2018-04-13T02:32:04.564Z,38.30
2018-04-13T02:33:04.559Z,36.90
2018-04-13T02:34:04.539Z,38.30
2018-04-13T02:35:04.525Z,38.90
2018-04-13T02:36:04.511Z,36.70
2018-04-13T02:37:04.500Z,38.30
2018-04-13T02:38:04.487Z,37.70
2018-04-13T02:39:04.474Z,37.40
2018-04-13T02:40:04.466Z,37.70
2018-04-13T02:41:04.450Z,37.30
2018-04-13T02:42:04.437Z,36.80
2018-04-13T02:43:04.424Z,38.10
2018-04-13T02:44:04.411Z,37.70
2018-04-13T02:45:04.399Z,38.60
2018-04-13T02:46:04.382Z,38.20
2018-04-13T02:47:04.373Z,38.70
2018-04-13T02:48:04.358Z,37.70
2018-04-13T02:49:04.346Z,39.30
2018-04-13T02:50:04.339Z,38.60
2018-04-13T02:51:04.322Z,38.30
2018-04-13T02:52:04.312Z,38.70
2018-04-13T02:53:04.295Z,38.80
2018-04-13T02:54:04.285Z,39.30
2018-04-13T02:55:04.276Z,39.80
2018-04-13T02:56:04.256Z,38.50
2018-04-13T02:57:04.242Z,38.30
2018-04-13T02:58:04.230Z,38.90
2018-04-13T02:59:04.216Z,39.40
2018-04-13T03:00:04.205Z,39.30
2018-04-13T03:01:04.189Z,38.30
2018-04-13T03:02:04.177Z,38.70
2018-04-13T03:03:04.164Z,39.10
2018-04-13T03:04:04.158Z,39.80
2018-04-13T03:05:04.139Z,38.60
2018-04-13T03:06:04.127Z,38.80
2018-04-13T03:07:04.114Z,39.60
2018-04-13T03:08:04.107Z,40.20
2018-04-13T03:09:04.091Z,39.70
2018-04-13T03:10:04.077Z,40.20
2018-04-13T03:11:04.061Z,39.00
2018-04-13T03:12:04.053Z,39.80
2018-04-13T03:13:04.034Z,39.80
2018-04-13T03:14:04.024Z,40.00
2018-04-13T03:15:04.011Z,40.00
2018-04-13T03:16:03.998Z,38.90
2018-04-13T03:17:03.989Z,40.20
2018-04-13T03:18:03.973Z,39.30
2018-04-13T03:19:03.961Z,40.30
2018-04-13T03:20:03.947Z,39.40
2018-04-13T03:21:03.933Z,39.60
2018-04-13T03:22:03.921Z,39.50
2018-04-13T03:23:03.908Z,39.60
2018-04-13T03:24:03.896Z,40.00
2018-04-13T03:25:03.888Z,40.00
2018-04-13T03:26:03.869Z,40.50
2018-04-13T03:27:03.858Z,39.80
2018-04-13T03:28:03.842Z,39.50
2018-04-13T03:29:03.830Z,38.90
2018-04-13T03:30:03.823Z,40.10
2018-04-13T03:31:03.804Z,39.80
2018-04-13T03:32:03.793Z,38.60
2018-04-13T03:33:03.778Z,40.00
2018-04-13T03:34:03.766Z,39.60
2018-04-13T03:35:03.754Z,39.30
2018-04-13T03:36:03.739Z,38.80
2018-04-13T03:37:03.728Z,39.80
2018-04-13T03:38:03.716Z,38.70
2018-04-13T03:39:03.701Z,38.70
2018-04-13T03:40:03.691Z,39.30
2018-04-13T03:41:03.678Z,39.10
2018-04-13T03:42:03.663Z,39.00
2018-04-13T03:43:03.649Z,39.90
2018-04-13T03:44:03.637Z,40.60
2018-04-13T03:45:03.622Z,40.20
2018-04-13T03:46:03.610Z,39.20
2018-04-13T03:47:03.601Z,39.30
2018-04-13T03:48:03.589Z,40.40
2018-04-13T03:49:03.570Z,38.80
2018-04-13T03:50:03.557Z,38.70
2018-04-13T03:51:03.545Z,38.40
2018-04-13T03:52:03.531Z,38.50
2018-04-13T03:53:03.519Z,39.40
2018-04-13T03:54:03.506Z,38.50
2018-04-13T03:55:03.493Z,39.20
2018-04-13T03:56:03.484Z,39.70
2018-04-13T03:57:03.467Z,39.70
2018-04-13T03:58:03.455Z,39.20
2018-04-13T03:59:03.443Z,39.50
2018-04-13T04:00:03.431Z,39.60
2018-04-13T04:01:03.418Z,38.80
2018-04-13T04:02:03.447Z,39.40
2018-04-13T04:03:03.391Z,39.20
2018-04-13T04:04:03.377Z,38.00
2018-04-13T04:05:03.368Z,39.00
2018-04-13T04:06:03.351Z,38.90
2018-04-13T04:07:03.338Z,38.10
2018-04-13T04:08:03.327Z,38.90
2018-04-13T04:09:03.311Z,40.20
2018-04-13T04:10:03.298Z,39.10
2018-04-13T04:11:03.374Z,39.80
2018-04-13T04:12:03.277Z,40.40
2018-04-13T04:13:03.259Z,38.40
2018-04-13T04:14:03.249Z,39.60
2018-04-13T04:15:03.235Z,40.70
2018-04-13T04:16:03.223Z,39.10
2018-04-13T04:17:03.207Z,40.00
2018-04-13T04:18:03.200Z,40.80
2018-04-13T04:19:03.188Z,39.70
2018-04-13T04:20:03.171Z,39.10
2018-04-13T04:21:03.156Z,39.90
2018-04-13T04:22:03.143Z,39.20
2018-04-13T04:23:03.132Z,39.70
2018-04-13T04:24:03.124Z,40.20
2018-04-13T04:25:03.107Z,38.80
2018-04-13T04:26:03.097Z,38.60
2018-04-13T04:27:03.080Z,38.20
2018-04-13T04:28:03.067Z,39.90
2018-04-13T04:29:03.054Z,38.60
2018-04-13T04:30:03.042Z,39.40
2018-04-13T04:31:03.030Z,39.60
2018-04-13T04:32:03.016Z,38.80
2018-04-13T04:33:03.003Z,39.00
2018-04-13T04:34:02.993Z,39.90
2018-04-13T04:35:02.976Z,39.10
2018-04-13T04:36:02.968Z,40.00
2018-04-13T04:37:02.953Z,39.60
2018-04-13T04:38:02.937Z,38.50
2018-04-13T04:39:02.926Z,38.20
2018-04-13T04:40:02.915Z,39.30
2018-04-13T04:41:02.920Z,39.10
2018-04-13T04:42:02.888Z,38.80
2018-04-13T04:43:02.878Z,39.30
2018-04-13T04:44:02.864Z,38.80
2018-04-13T04:45:02.847Z,39.30
2018-04-13T04:46:02.839Z,39.30
2018-04-13T04:47:02.826Z,39.20
2018-04-13T04:48:02.824Z,39.70
2018-04-13T04:49:02.797Z,39.20
2018-04-13T04:50:02.788Z,38.20
2018-04-13T04:51:02.774Z,39.40
2018-04-13T04:52:02.760Z,39.70
2018-04-13T04:53:02.750Z,38.60
2018-04-13T04:54:02.734Z,39.10
2018-04-13T04:55:02.725Z,38.90
2018-04-13T04:56:02.711Z,39.80
2018-04-13T04:57:02.701Z,38.00
2018-04-13T04:58:02.686Z,37.30
2018-04-13T04:59:02.671Z,39.00
2018-04-13T05:00:02.661Z,38.00
2018-04-13T05:01:02.645Z,38.00
2018-04-13T05:02:02.643Z,37.60
2018-04-13T05:03:02.620Z,37.90
2018-04-13T05:04:02.607Z,36.90
2018-04-13T05:05:02.605Z,37.90
2018-04-13T05:06:02.581Z,36.90
2018-04-13T05:07:02.568Z,38.00
2018-04-13T05:08:02.556Z,37.00
2018-04-13T05:09:02.548Z,36.50
2018-04-13T05:10:02.530Z,36.30
2018-04-13T05:11:02.522Z,36.60
2018-04-13T05:12:02.519Z,37.50
2018-04-13T05:13:02.493Z,36.80
2018-04-13T05:14:02.480Z,36.20
2018-04-13T05:15:02.472Z,36.60
2018-04-13T05:16:02.456Z,37.10
2018-04-13T05:17:02.439Z,36.90
2018-04-13T05:18:02.426Z,37.10
2018-04-13T05:19:02.416Z,36.20
2018-04-13T05:20:02.407Z,37.60
2018-04-13T05:21:02.393Z,37.10
2018-04-13T05:22:02.377Z,35.40
2018-04-13T05:23:02.365Z,36.60
2018-04-13T05:24:02.403Z,36.00
2018-04-13T05:25:02.339Z,36.80
2018-04-13T05:26:02.326Z,36.60
2018-04-13T05:27:02.315Z,36.60
2018-04-13T05:28:02.303Z,38.00
2018-04-13T05:29:02.288Z,37.00
2018-04-13T05:30:02.278Z,37.50
2018-04-13T05:31:02.265Z,36.70
2018-04-13T05:32:02.252Z,36.40
2018-04-13T05:33:02.239Z,36.40
2018-04-13T05:34:02.226Z,36.70
2018-04-13T05:35:02.220Z,36.30
2018-04-13T05:36:02.206Z,36.60
2018-04-13T05:37:02.186Z,37.90
2018-04-13T05:38:02.176Z,36.50
2018-04-13T05:39:02.165Z,36.30
2018-04-13T05:40:02.151Z,37.00
2018-04-13T05:41:02.135Z,37.20
2018-04-13T05:42:02.127Z,36.90
2018-04-13T05:43:02.110Z,35.60
2018-04-13T05:44:02.098Z,35.20
2018-04-13T05:45:02.085Z,35.90
2018-04-13T05:46:02.116Z,36.00
2018-04-13T05:47:02.061Z,36.30
2018-04-13T05:48:02.049Z,35.80
2018-04-13T05:49:02.037Z,35.20
2018-04-13T05:50:02.027Z,34.60
2018-04-13T05:51:02.012Z,35.60
2018-04-13T05:52:01.997Z,34.30
2018-04-13T05:53:01.983Z,34.30
2018-04-13T05:54:01.974Z,33.90
2018-04-13T05:55:01.959Z,34.00
2018-04-13T05:56:01.949Z,34.30
2018-04-13T05:57:01.943Z,34.40
2018-04-13T05:58:01.924Z,33.60
2018-04-13T05:59:01.909Z,34.20
2018-04-13T06:00:01.896Z,32.40
2018-04-13T06:01:01.886Z,31.50
2018-04-13T06:02:01.924Z,32.40
2018-04-13T06:03:01.857Z,31.20
2018-04-13T06:04:01.849Z,30.60
2018-04-13T06:05:01.835Z,30.30
2018-04-13T06:06:01.864Z,30.70
2018-04-13T06:07:01.816Z,31.80
2018-04-13T06:08:01.796Z,32.30
2018-04-13T06:09:01.784Z,33.00
2018-04-13T06:10:01.775Z,31.60
2018-04-13T06:11:01.762Z,31.60
2018-04-13T06:12:01.749Z,31.90
2018-04-13T06:13:01.735Z,31.00
2018-04-13T06:14:01.720Z,30.90
2018-04-13T06:15:01.710Z,29.90
2018-04-13T06:16:01.697Z,28.80
2018-04-13T06:17:01.684Z,28.60
2018-04-13T06:18:01.679Z,29.30
2018-04-13T06:19:01.661Z,27.10
2018-04-13T06:20:01.652Z,27.60
2018-04-13T06:21:01.637Z,26.90
2018-04-13T06:22:01.623Z,26.30
2018-04-13T06:23:01.619Z,25.80
2018-04-13T06:24:01.602Z,25.70
2018-04-13T06:25:01.591Z,25.60
2018-04-13T06:26:01.575Z,29.10
2018-04-13T06:27:01.565Z,26.30
2018-04-13T06:28:01.551Z,26.20
2018-04-13T06:29:01.537Z,28.40
2018-04-13T06:30:01.525Z,26.40
2018-04-13T06:31:01.517Z,28.60
2018-04-13T06:32:01.505Z,26.30
2018-04-13T06:33:01.489Z,26.80
2018-04-13T06:34:01.480Z,26.40
2018-04-13T06:35:01.467Z,28.30
2018-04-13T06:36:01.454Z,28.50
2018-04-13T06:37:01.443Z,25.00
2018-04-13T06:38:01.428Z,24.90
2018-04-13T06:39:01.417Z,26.50
2018-04-13T06:40:01.406Z,27.60
2018-04-13T06:41:01.393Z,28.20
2018-04-13T06:42:01.382Z,28.40
2018-04-13T06:43:01.371Z,28.40
2018-04-13T06:44:01.357Z,28.20
2018-04-13T06:45:01.348Z,28.90
2018-04-13T06:46:01.346Z,29.30
2018-04-13T06:47:01.322Z,30.00
2018-04-13T06:48:01.313Z,30.10
2018-04-13T06:49:01.297Z,29.30
2018-04-13T06:50:01.287Z,31.70
2018-04-13T06:51:01.281Z,29.70
2018-04-13T06:52:01.271Z,30.40
2018-04-13T06:53:01.249Z,31.20
2018-04-13T06:54:01.240Z,31.50
2018-04-13T06:55:01.233Z,30.60
2018-04-13T06:56:28.463Z,32.10
2018-04-13T06:57:04.293Z,31.30
2018-04-13T06:58:01.202Z,32.10
2018-04-13T06:59:01.178Z,32.10
2018-04-13T07:00:01.167Z,32.20
2018-04-13T07:01:01.152Z,31.00
2018-04-13T07:02:01.140Z,30.80
2018-04-13T07:03:01.128Z,31.40
2018-04-13T07:04:01.116Z,31.20
2018-04-13T07:05:01.103Z,32.70
2018-04-13T07:06:01.102Z,31.00
2018-04-13T07:07:01.083Z,31.20
2018-04-13T07:08:01.067Z,31.10
2018-04-13T07:09:01.052Z,31.80
2018-04-13T07:10:01.047Z,30.60
2018-04-13T07:11:01.032Z,30.60
2018-04-13T07:12:01.022Z,30.80
2018-04-13T07:13:01.006Z,31.30
2018-04-13T07:14:00.996Z,31.40
2018-04-13T07:15:00.988Z,31.70
2018-04-13T07:16:00.978Z,30.80
2018-04-13T07:17:00.967Z,31.40
2018-04-13T07:18:00.949Z,31.50
2018-04-13T07:19:00.936Z,30.80
2018-04-13T07:20:00.923Z,31.30
2018-04-13T07:21:00.914Z,31.50
2018-04-13T07:22:00.899Z,30.50
2018-04-13T07:23:00.890Z,31.00
2018-04-13T07:24:00.877Z,31.50
2018-04-13T07:25:00.921Z,31.10
2018-04-13T07:26:00.852Z,31.60
2018-04-13T07:27:00.839Z,29.90
2018-04-13T07:28:00.831Z,30.30
2018-04-13T07:29:00.814Z,30.80
2018-04-13T07:30:00.802Z,29.90
2018-04-13T07:31:00.795Z,30.60
2018-04-13T07:32:00.783Z,30.80
2018-04-13T07:33:00.770Z,30.10
2018-04-13T07:34:00.754Z,31.20
2018-04-13T07:35:00.742Z,29.70
2018-04-13T07:36:00.734Z,30.60
2018-04-13T07:37:01.110Z,31.50
2018-04-13T07:38:00.707Z,32.00
2018-04-13T07:39:00.695Z,30.90
2018-04-13T07:40:00.684Z,30.20
2018-04-13T07:41:00.673Z,31.40
2018-04-13T07:42:00.660Z,31.20
2018-04-13T07:43:00.648Z,32.30
2018-04-13T07:44:00.633Z,32.90
2018-04-13T07:45:00.673Z,31.40
2018-04-13T07:46:00.611Z,49.10
2018-04-13T07:47:00.600Z,46.30
2018-04-13T07:48:00.600Z,49.00
2018-04-13T07:49:00.574Z,45.90
2018-04-13T07:50:00.563Z,51.10
2018-04-13T07:51:00.559Z,49.50
2018-04-13T07:52:00.543Z,45.00
2018-04-13T07:53:00.528Z,53.10
2018-04-13T07:54:00.519Z,50.30
2018-04-13T07:55:00.510Z,50.50
2018-04-13T07:56:00.488Z,55.80
2018-04-13T07:57:00.488Z,54.80
2018-04-13T07:58:00.464Z,57.80
2018-04-13T07:59:00.906Z,51.30
2018-04-13T08:00:00.488Z,53.30
2018-04-13T08:01:00.426Z,59.00
2018-04-13T08:02:00.418Z,56.40
2018-04-13T08:03:00.411Z,60.80
2018-04-13T08:04:00.394Z,62.30
2018-04-13T08:05:00.385Z,59.30
2018-04-13T08:06:00.365Z,47.90
2018-04-13T08:07:00.353Z,50.90
2018-04-13T08:08:00.342Z,52.20
2018-04-13T08:09:00.328Z,49.20
2018-04-13T08:10:00.316Z,50.20
2018-04-13T08:11:00.302Z,51.50
2018-04-13T08:12:00.296Z,48.90
2018-04-13T08:13:00.281Z,48.20
2018-04-13T08:14:00.266Z,47.20
2018-04-13T08:15:00.729Z,56.70
2018-04-13T08:16:00.243Z,50.50
2018-04-13T08:17:00.228Z,48.70
2018-04-13T08:18:00.231Z,50.10
2018-04-13T08:19:00.204Z,51.00
2018-04-13T08:20:00.194Z,47.90
2018-04-13T08:21:00.181Z,50.40
2018-04-13T08:22:00.166Z,46.20
2018-04-13T08:23:00.162Z,47.20
2018-04-13T08:24:00.143Z,47.00
2018-04-13T08:25:00.136Z,52.20
2018-04-13T08:26:00.119Z,45.50
2018-04-13T08:27:00.106Z,46.70
2018-04-13T08:28:00.099Z,44.90
2018-04-13T08:29:00.082Z,45.30
2018-04-13T08:30:00.105Z,47.30
2018-04-13T08:31:00.087Z,51.30
2018-04-13T08:32:00.074Z,44.90
2018-04-13T08:33:00.035Z,49.50
2018-04-13T08:34:00.026Z,47.20
2018-04-13T08:35:00.011Z,44.20
2018-04-13T08:36:00.009Z,44.50
2018-04-13T08:37:00.002Z,46.60
2018-04-13T08:37:59.974Z,42.00
2018-04-13T08:38:59.962Z,46.70
2018-04-13T08:39:59.965Z,42.00
2018-04-13T08:40:59.935Z,43.50
2018-04-13T08:41:59.924Z,43.40
2018-04-13T08:42:59.916Z,44.00
2018-04-13T08:43:59.902Z,43.20
2018-04-13T08:44:59.897Z,43.50
2018-04-13T08:45:59.876Z,45.30
2018-04-13T08:46:59.865Z,44.20
2018-04-13T08:47:59.858Z,43.90
2018-04-13T08:48:59.958Z,44.20
2018-04-13T08:49:59.831Z,42.00
2018-04-13T08:50:59.818Z,44.60
2018-04-13T08:51:59.807Z,43.40
2018-04-13T08:52:59.792Z,42.10
2018-04-13T08:53:59.781Z,41.10
2018-04-13T08:54:59.778Z,42.00
2018-04-13T08:55:59.760Z,40.70
2018-04-13T08:56:59.744Z,42.50
2018-04-13T08:57:59.733Z,42.80
2018-04-13T08:58:59.723Z,40.80
2018-04-13T08:59:59.709Z,44.00
2018-04-13T09:00:59.722Z,39.80
2018-04-13T09:01:59.685Z,40.60
2018-04-13T09:02:59.673Z,41.60
2018-04-13T09:03:59.667Z,41.10
2018-04-13T09:04:59.647Z,39.70
2018-04-13T09:05:59.637Z,38.90
2018-04-13T09:06:59.626Z,38.80
2018-04-13T09:07:59.615Z,38.40
2018-04-13T09:08:59.603Z,35.90
2018-04-13T09:09:59.591Z,36.40
2018-04-13T09:10:59.591Z,35.30
2018-04-13T09:11:59.567Z,38.80
2018-04-13T09:12:59.565Z,37.10
2018-04-13T09:13:59.549Z,36.90
2018-04-13T09:14:59.534Z,38.00
2018-04-13T09:15:59.527Z,36.60
2018-04-13T09:16:59.516Z,38.10
2018-04-13T09:17:59.506Z,35.20
2018-04-13T09:18:59.492Z,37.00
2018-04-13T09:19:59.478Z,36.40
2018-04-13T09:20:59.467Z,36.20
2018-04-13T09:21:59.455Z,36.90
2018-04-13T09:22:59.449Z,37.20
2018-04-13T09:23:59.448Z,38.20
2018-04-13T09:24:59.423Z,37.80
2018-04-13T09:25:59.414Z,37.30
2018-04-13T09:26:59.403Z,38.70
2018-04-13T09:27:59.441Z,38.50
2018-04-13T09:28:59.382Z,38.50
2018-04-13T09:29:59.375Z,38.70
2018-04-13T09:30:59.356Z,38.90
2018-04-13T09:31:59.347Z,39.60
2018-04-13T09:32:59.339Z,40.40
2018-04-13T09:33:59.325Z,43.10
2018-04-13T09:34:59.315Z,40.30
2018-04-13T09:35:59.324Z,41.60
2018-04-13T09:36:59.291Z,40.80
2018-04-13T09:37:59.278Z,40.80
2018-04-13T09:38:59.269Z,39.90
2018-04-13T09:39:59.258Z,41.00
2018-04-13T09:40:59.246Z,42.50
2018-04-13T09:41:59.246Z,39.50
2018-04-13T09:42:59.226Z,39.90
2018-04-13T09:43:59.214Z,39.30
2018-04-13T09:44:59.203Z,41.80
2018-04-13T09:45:59.193Z,42.10
2018-04-13T09:46:59.189Z,40.90
2018-04-13T09:47:59.170Z,39.50
2018-04-13T09:48:59.167Z,42.40
2018-04-13T09:49:59.149Z,39.90
2018-04-13T09:50:59.154Z,40.00
2018-04-13T09:51:59.128Z,40.10
2018-04-13T09:52:59.117Z,42.00
2018-04-13T09:53:59.105Z,41.00
2018-04-13T09:54:59.107Z,42.10
2018-04-13T09:55:59.090Z,42.00
2018-04-13T09:56:59.075Z,41.50
2018-04-13T09:57:59.067Z,41.00
2018-04-13T09:58:59.051Z,42.00
2018-04-13T09:59:59.042Z,41.20
2018-04-13T10:00:59.030Z,41.60
2018-04-13T10:01:59.018Z,43.20
2018-04-13T10:02:59.008Z,42.90
2018-04-13T10:03:58.999Z,43.40
2018-04-13T10:04:58.992Z,43.30
2018-04-13T10:05:58.980Z,43.60
2018-04-13T10:06:58.967Z,44.40
2018-04-13T10:07:58.966Z,44.00
2018-04-13T10:08:58.947Z,43.60
2018-04-13T10:09:58.934Z,43.30
2018-04-13T10:10:58.924Z,45.10
2018-04-13T10:11:58.913Z,43.90
2018-04-13T10:12:58.901Z,44.40
2018-04-13T10:13:58.890Z,45.10
2018-04-13T10:14:58.883Z,45.40
2018-04-13T10:15:58.871Z,46.30
2018-04-13T10:16:58.862Z,46.80
2018-04-13T10:17:58.848Z,44.30
2018-04-13T10:18:58.838Z,45.90
2018-04-13T10:19:58.826Z,45.30
2018-04-13T10:20:58.814Z,44.60
2018-04-13T10:21:58.804Z,44.00
2018-04-13T10:22:58.821Z,46.30
2018-04-13T10:23:58.781Z,45.60
2018-04-13T10:24:58.775Z,43.20
2018-04-13T10:25:58.762Z,45.60
2018-04-13T10:26:58.750Z,46.30
2018-04-13T10:27:58.740Z,43.40
2018-04-13T10:28:58.726Z,44.10
2018-04-13T10:29:58.725Z,43.70
2018-04-13T10:30:58.707Z,44.80
2018-04-13T10:31:58.698Z,42.40
2018-04-13T10:32:58.683Z,42.60
2018-04-13T10:33:58.676Z,45.40
2018-04-13T10:34:58.664Z,45.80
2018-04-13T10:35:58.656Z,43.30
2018-04-13T10:36:58.641Z,45.90
2018-04-13T10:37:58.631Z,44.50
2018-04-13T10:38:58.622Z,44.60
2018-04-13T10:39:58.610Z,44.50
2018-04-13T10:40:58.599Z,45.20
2018-04-13T10:41:58.609Z,42.80
2018-04-13T10:42:58.578Z,43.60
2018-04-13T10:43:58.568Z,43.50
2018-04-13T10:44:58.557Z,43.20
2018-04-13T10:45:58.545Z,42.50
2018-04-13T10:46:58.536Z,42.10
2018-04-13T10:47:58.525Z,40.60
2018-04-13T10:48:58.521Z,41.00
2018-04-13T10:49:58.521Z,41.30
2018-04-13T10:50:58.494Z,41.70
2018-04-13T10:51:58.483Z,40.60
2018-04-13T10:52:58.472Z,37.40
2018-04-13T10:53:58.461Z,38.50
2018-04-13T10:54:58.452Z,38.70
2018-04-13T10:55:58.447Z,37.80
2018-04-13T10:56:58.435Z,36.30
2018-04-13T10:57:58.420Z,36.90
2018-04-13T10:58:58.410Z,36.80
2018-04-13T10:59:58.402Z,37.10
2018-04-13T11:00:58.389Z,38.60
2018-04-13T11:01:58.382Z,38.00
2018-04-13T11:02:58.368Z,37.70
2018-04-13T11:03:58.359Z,37.60
2018-04-13T11:04:58.346Z,37.80
2018-04-13T11:05:58.337Z,39.40
2018-04-13T11:06:58.336Z,38.40
2018-04-13T11:07:58.316Z,35.70
2018-04-13T11:08:58.303Z,35.00
2018-04-13T11:09:58.293Z,33.70
2018-04-13T11:10:58.282Z,33.50
2018-04-13T11:11:58.269Z,33.50
2018-04-13T11:12:58.260Z,32.60
2018-04-13T11:13:58.250Z,33.20
2018-04-13T11:14:58.242Z,30.30
2018-04-13T11:15:58.238Z,31.80
2018-04-13T11:16:58.221Z,31.60
2018-04-13T11:17:58.209Z,32.20
2018-04-13T11:18:58.203Z,30.80
2018-04-13T11:19:58.189Z,28.70
2018-04-13T11:20:58.180Z,27.70
2018-04-13T11:21:58.168Z,27.70
2018-04-13T11:22:58.159Z,27.30
2018-04-13T11:23:58.148Z,25.90
2018-04-13T11:24:58.139Z,25.50
2018-04-13T11:25:58.131Z,24.90
2018-04-13T11:26:58.122Z,23.00
2018-04-13T11:27:58.112Z,23.70
2018-04-13T11:28:58.102Z,24.80
2018-04-13T11:29:58.094Z,23.50
2018-04-13T11:30:58.086Z,24.90
2018-04-13T11:31:58.077Z,23.40
2018-04-13T11:32:58.074Z,22.40
2018-04-13T11:33:58.060Z,23.40
2018-04-13T11:34:58.051Z,22.50
2018-04-13T11:35:58.044Z,21.50
2018-04-13T11:36:58.038Z,23.80
2018-04-13T11:37:58.027Z,23.30
2018-04-13T11:38:58.018Z,23.40
2018-04-13T11:39:58.009Z,22.00
2018-04-13T11:40:58.000Z,22.80
2018-04-13T11:41:57.993Z,22.20
2018-04-13T11:42:57.983Z,22.30
2018-04-13T11:43:57.974Z,21.80
2018-04-13T11:44:57.966Z,20.90
2018-04-13T11:45:57.960Z,20.00
2018-04-13T11:46:57.951Z,20.30
2018-04-13T11:47:57.947Z,18.50
2018-04-13T11:48:57.935Z,18.40
2018-04-13T11:49:57.926Z,20.00
2018-04-13T11:50:57.918Z,17.80
2018-04-13T11:51:57.913Z,17.80
2018-04-13T11:52:57.904Z,16.60
2018-04-13T11:53:57.899Z,18.20
2018-04-13T11:54:57.893Z,17.20
2018-04-13T11:55:57.886Z,17.40
2018-04-13T11:56:57.876Z,15.70
2018-04-13T11:57:57.868Z,17.80
2018-04-13T11:58:57.863Z,14.70
2018-04-13T11:59:57.859Z,13.10
2018-04-13T12:00:57.849Z,12.70
2018-04-13T12:01:57.843Z,15.00
2018-04-13T12:02:57.831Z,13.80
2018-04-13T12:03:57.832Z,13.10
2018-04-13T12:04:57.822Z,13.10
2018-04-13T12:05:57.813Z,15.10
2018-04-13T12:06:57.808Z,13.40
2018-04-13T12:07:57.801Z,12.80
2018-04-13T12:08:57.789Z,14.50
2018-04-13T12:09:57.785Z,14.50
2018-04-13T12:10:57.784Z,15.90
2018-04-13T12:11:57.773Z,17.60
2018-04-13T12:12:57.760Z,15.60
2018-04-13T12:13:57.758Z,14.00
2018-04-13T12:14:57.749Z,14.40
2018-04-13T12:15:57.743Z,11.10
2018-04-13T12:16:57.733Z,13.20
2018-04-13T12:17:57.729Z,14.40
2018-04-13T12:18:57.721Z,13.40
2018-04-13T12:19:57.720Z,14.30
2018-04-13T12:20:57.707Z,13.90
2018-04-13T12:21:57.703Z,13.10
2018-04-13T12:22:57.699Z,11.70
2018-04-13T12:23:57.690Z,11.40
2018-04-13T12:24:57.682Z,11.40
2018-04-13T12:25:57.677Z,15.40
2018-04-13T12:26:57.674Z,13.70
2018-04-13T12:27:57.667Z,14.50
2018-04-13T12:28:57.658Z,12.70
2018-04-13T12:29:57.652Z,13.70
2018-04-13T12:30:57.650Z,11.90
2018-04-13T12:31:57.651Z,10.90
2018-04-13T12:32:57.636Z,11.60
2018-04-13T12:33:57.631Z,13.80
2018-04-13T12:34:57.625Z,10.20
2018-04-13T12:35:57.618Z,12.70
2018-04-13T12:36:57.612Z,10.40
2018-04-13T12:37:57.608Z,15.00
2018-04-13T12:38:57.601Z,10.80
2018-04-13T12:39:57.595Z,13.90
2018-04-13T12:40:57.589Z,10.20
2018-04-13T12:41:57.581Z,11.50
2018-04-13T12:42:57.575Z,12.30
2018-04-13T12:43:57.572Z,13.00
2018-04-13T12:44:57.566Z,10.80
2018-04-13T12:45:57.556Z,9.80
2018-04-13T12:46:57.550Z,11.70
2018-04-13T12:47:57.545Z,13.20
2018-04-13T12:48:57.595Z,12.50
2018-04-13T12:49:57.539Z,11.90
2018-04-13T12:50:57.530Z,12.60
2018-04-13T12:51:57.526Z,10.60